sensor_id;sensor_type;location;lat;lon;timestamp;temperature;humidity
67750;DHT22;54550;48.838;8.828;2023-01-13T00:02:21;7.90;99.90
67750;DHT22;54550;48.838;8.828;2023-01-13T00:04:47;8.10;99.90
67750;DHT22;54550;48.838;8.828;2023-01-13T00:07:13;8.00;99.90
67750;DHT22;54550;48.838;8.828;2023-01-13T00:09:38;7.90;99.90
67750;DHT22;54550;48.838;8.828;2023-01-13T00:12:04;8.00;99.90
67750;DHT22;54550;48.838;8.828;2023-01-13T00:14:33;7.90;99.90
67750;DHT22;54550;48.838;8.828;2023-01-13T00:16:59;7.90;99.90
67750;DHT22;54550;48.838;8.828;2023-01-13T00:19:24;7.90;99.90
67750;DHT22;54550;48.838;8.828;2023-01-13T00:21:50;7.90;99.90
67750;DHT22;54550;48.838;8.828;2023-01-13T00:24:15;7.80;99.90
67750;DHT22;54550;48.838;8.828;2023-01-13T00:26:41;7.80;99.90
67750;DHT22;54550;48.838;8.828;2023-01-13T00:29:06;7.80;99.90
67750;DHT22;54550;48.838;8.828;2023-01-13T00:31:32;7.90;99.90
67750;DHT22;54550;48.838;8.828;2023-01-13T00:33:59;7.80;99.90
67750;DHT22;54550;48.838;8.828;2023-01-13T00:36:26;7.70;99.90
67750;DHT22;54550;48.838;8.828;2023-01-13T00:38:51;7.80;99.90
67750;DHT22;54550;48.838;8.828;2023-01-13T00:41:18;7.90;99.90
67750;DHT22;54550;48.838;8.828;2023-01-13T00:43:45;7.80;99.90
67750;DHT22;54550;48.838;8.828;2023-01-13T00:46:12;7.80;99.90
67750;DHT22;54550;48.838;8.828;2023-01-13T00:48:38;7.90;99.90
67750;DHT22;54550;48.838;8.828;2023-01-13T00:51:06;7.90;99.90
67750;DHT22;54550;48.838;8.828;2023-01-13T00:53:35;7.80;99.90
67750;DHT22;54550;48.838;8.828;2023-01-13T00:56:03;7.90;99.90
67750;DHT22;54550;48.838;8.828;2023-01-13T00:58:33;7.90;99.90
67750;DHT22;54550;48.838;8.828;2023-01-13T01:01:00;7.90;99.90
67750;DHT22;54550;48.838;8.828;2023-01-13T01:03:26;8.10;99.90
67750;DHT22;54550;48.838;8.828;2023-01-13T01:05:51;7.80;99.90
67750;DHT22;54550;48.838;8.828;2023-01-13T01:08:17;7.80;99.90
67750;DHT22;54550;48.838;8.828;2023-01-13T01:10:43;7.80;99.90
67750;DHT22;54550;48.838;8.828;2023-01-13T01:13:08;7.80;99.90
67750;DHT22;54550;48.838;8.828;2023-01-13T01:15:41;7.80;99.90
67750;DHT22;54550;48.838;8.828;2023-01-13T01:18:07;7.80;99.90
67750;DHT22;54550;48.838;8.828;2023-01-13T01:20:33;7.80;99.90
67750;DHT22;54550;48.838;8.828;2023-01-13T01:22:58;7.80;99.90
67750;DHT22;54550;48.838;8.828;2023-01-13T01:25:25;7.80;99.90
67750;DHT22;54550;48.838;8.828;2023-01-13T01:27:50;8.00;99.90
67750;DHT22;54550;48.838;8.828;2023-01-13T01:30:16;7.90;99.90
67750;DHT22;54550;48.838;8.828;2023-01-13T01:32:42;8.00;99.90
67750;DHT22;54550;48.838;8.828;2023-01-13T01:35:07;8.00;99.90
67750;DHT22;54550;48.838;8.828;2023-01-13T01:37:33;8.00;99.90
67750;DHT22;54550;48.838;8.828;2023-01-13T01:39:58;8.00;99.90
67750;DHT22;54550;48.838;8.828;2023-01-13T01:42:24;8.10;99.90
67750;DHT22;54550;48.838;8.828;2023-01-13T01:45:23;8.30;99.90
67750;DHT22;54550;48.838;8.828;2023-01-13T01:47:52;8.30;99.90
67750;DHT22;54550;48.838;8.828;2023-01-13T01:50:21;8.40;99.90
67750;DHT22;54550;48.838;8.828;2023-01-13T01:52:52;8.30;99.90
67750;DHT22;54550;48.838;8.828;2023-01-13T01:55:22;8.30;99.90
67750;DHT22;54550;48.838;8.828;2023-01-13T02:00:18;8.30;99.90
67750;DHT22;54550;48.838;8.828;2023-01-13T02:02:46;8.40;99.90
67750;DHT22;54550;48.838;8.828;2023-01-13T02:05:12;8.40;99.90
67750;DHT22;54550;48.838;8.828;2023-01-13T02:07:39;8.30;99.90
67750;DHT22;54550;48.838;8.828;2023-01-13T02:10:10;8.30;99.90
67750;DHT22;54550;48.838;8.828;2023-01-13T02:12:36;8.30;99.90
67750;DHT22;54550;48.838;8.828;2023-01-13T02:15:12;8.30;99.90
67750;DHT22;54550;48.838;8.828;2023-01-13T02:20:58;8.30;99.90
67750;DHT22;54550;48.838;8.828;2023-01-13T02:27:23;8.10;99.90
67750;DHT22;54550;48.838;8.828;2023-01-13T02:30:05;8.10;99.90
67750;DHT22;54550;48.838;8.828;2023-01-13T02:36:00;8.00;99.90
67750;DHT22;54550;48.838;8.828;2023-01-13T02:38:34;7.90;99.90
67750;DHT22;54550;48.838;8.828;2023-01-13T02:41:03;8.00;99.90
67750;DHT22;54550;48.838;8.828;2023-01-13T02:43:49;7.80;99.90
67750;DHT22;54550;48.838;8.828;2023-01-13T02:49:05;7.70;99.90
67750;DHT22;54550;48.838;8.828;2023-01-13T02:51:32;7.60;99.90
67750;DHT22;54550;48.838;8.828;2023-01-13T02:54:03;7.60;99.90
67750;DHT22;54550;48.838;8.828;2023-01-13T02:56:33;7.50;99.90
67750;DHT22;54550;48.838;8.828;2023-01-13T02:59:00;7.60;99.90
67750;DHT22;54550;48.838;8.828;2023-01-13T03:01:26;7.70;99.90
67750;DHT22;54550;48.838;8.828;2023-01-13T03:03:52;7.60;99.90
67750;DHT22;54550;48.838;8.828;2023-01-13T03:09:25;7.70;99.90
67750;DHT22;54550;48.838;8.828;2023-01-13T03:12:02;7.70;99.90
67750;DHT22;54550;48.838;8.828;2023-01-13T03:14:35;7.70;99.90
67750;DHT22;54550;48.838;8.828;2023-01-13T03:17:36;7.70;99.90
67750;DHT22;54550;48.838;8.828;2023-01-13T03:20:14;7.70;99.90
67750;DHT22;54550;48.838;8.828;2023-01-13T03:22:53;7.70;99.90
67750;DHT22;54550;48.838;8.828;2023-01-13T03:25:33;7.70;99.90
67750;DHT22;54550;48.838;8.828;2023-01-13T03:28:17;7.70;99.90
67750;DHT22;54550;48.838;8.828;2023-01-13T03:30:53;7.70;99.90
67750;DHT22;54550;48.838;8.828;2023-01-13T03:33:43;7.60;99.90
67750;DHT22;54550;48.838;8.828;2023-01-13T03:36:12;7.60;99.90
67750;DHT22;54550;48.838;8.828;2023-01-13T03:38:45;7.60;99.90
67750;DHT22;54550;48.838;8.828;2023-01-13T03:41:24;7.60;99.90
67750;DHT22;54550;48.838;8.828;2023-01-13T03:44:02;7.60;99.90
67750;DHT22;54550;48.838;8.828;2023-01-13T03:52:32;7.70;99.90
67750;DHT22;54550;48.838;8.828;2023-01-13T03:55:08;7.80;99.90
67750;DHT22;54550;48.838;8.828;2023-01-13T03:57:40;7.70;99.90
67750;DHT22;54550;48.838;8.828;2023-01-13T04:00:08;7.70;99.90
67750;DHT22;54550;48.838;8.828;2023-01-13T04:03:10;7.70;99.90
67750;DHT22;54550;48.838;8.828;2023-01-13T04:05:41;7.70;99.90
67750;DHT22;54550;48.838;8.828;2023-01-13T04:08:18;7.80;99.90
67750;DHT22;54550;48.838;8.828;2023-01-13T04:11:03;7.80;99.90
67750;DHT22;54550;48.838;8.828;2023-01-13T04:13:34;7.80;99.90
67750;DHT22;54550;48.838;8.828;2023-01-13T04:16:01;7.90;99.90
67750;DHT22;54550;48.838;8.828;2023-01-13T04:18:30;7.90;99.90
67750;DHT22;54550;48.838;8.828;2023-01-13T04:20:57;8.00;99.90
67750;DHT22;54550;48.838;8.828;2023-01-13T04:23:24;8.00;99.90
67750;DHT22;54550;48.838;8.828;2023-01-13T04:25:50;8.00;99.90
67750;DHT22;54550;48.838;8.828;2023-01-13T04:28:16;8.00;99.90
67750;DHT22;54550;48.838;8.828;2023-01-13T04:30:43;8.10;99.90
67750;DHT22;54550;48.838;8.828;2023-01-13T04:33:09;8.10;99.90
67750;DHT22;54550;48.838;8.828;2023-01-13T04:35:36;8.20;99.90
67750;DHT22;54550;48.838;8.828;2023-01-13T04:38:14;8.20;99.90
67750;DHT22;54550;48.838;8.828;2023-01-13T04:40:40;8.30;99.90
67750;DHT22;54550;48.838;8.828;2023-01-13T04:43:06;8.30;99.90
67750;DHT22;54550;48.838;8.828;2023-01-13T04:45:32;8.30;99.90
67750;DHT22;54550;48.838;8.828;2023-01-13T04:47:58;8.50;99.90
67750;DHT22;54550;48.838;8.828;2023-01-13T04:50:24;8.30;99.90
67750;DHT22;54550;48.838;8.828;2023-01-13T04:52:50;8.20;99.90
67750;DHT22;54550;48.838;8.828;2023-01-13T04:55:18;8.30;99.90
67750;DHT22;54550;48.838;8.828;2023-01-13T04:57:44;8.30;99.90
67750;DHT22;54550;48.838;8.828;2023-01-13T05:00:11;8.20;99.90
67750;DHT22;54550;48.838;8.828;2023-01-13T05:02:37;8.20;99.90
67750;DHT22;54550;48.838;8.828;2023-01-13T05:05:03;8.20;99.90
67750;DHT22;54550;48.838;8.828;2023-01-13T05:07:29;8.20;99.90
67750;DHT22;54550;48.838;8.828;2023-01-13T05:09:55;8.20;99.90
67750;DHT22;54550;48.838;8.828;2023-01-13T05:12:20;8.20;99.90
67750;DHT22;54550;48.838;8.828;2023-01-13T05:15:13;8.20;99.90
67750;DHT22;54550;48.838;8.828;2023-01-13T05:17:58;8.30;99.90
67750;DHT22;54550;48.838;8.828;2023-01-13T05:20:24;8.30;99.90
67750;DHT22;54550;48.838;8.828;2023-01-13T05:22:50;8.30;99.90
67750;DHT22;54550;48.838;8.828;2023-01-13T05:25:38;8.30;99.90
67750;DHT22;54550;48.838;8.828;2023-01-13T05:28:05;8.40;99.90
67750;DHT22;54550;48.838;8.828;2023-01-13T05:30:36;8.40;99.90
67750;DHT22;54550;48.838;8.828;2023-01-13T05:33:02;8.30;99.90
67750;DHT22;54550;48.838;8.828;2023-01-13T05:35:28;8.40;99.90
67750;DHT22;54550;48.838;8.828;2023-01-13T05:37:54;8.30;99.90
67750;DHT22;54550;48.838;8.828;2023-01-13T05:40:20;8.20;99.90
67750;DHT22;54550;48.838;8.828;2023-01-13T05:43:16;8.20;99.90
67750;DHT22;54550;48.838;8.828;2023-01-13T05:46:08;8.10;99.90
67750;DHT22;54550;48.838;8.828;2023-01-13T05:48:39;8.10;99.90
67750;DHT22;54550;48.838;8.828;2023-01-13T05:51:07;8.00;99.90
67750;DHT22;54550;48.838;8.828;2023-01-13T05:53:34;8.00;99.90
67750;DHT22;54550;48.838;8.828;2023-01-13T05:56:03;8.00;99.90
67750;DHT22;54550;48.838;8.828;2023-01-13T05:58:30;8.10;99.90
67750;DHT22;54550;48.838;8.828;2023-01-13T06:01:00;8.20;99.90
67750;DHT22;54550;48.838;8.828;2023-01-13T06:03:25;8.10;99.90
67750;DHT22;54550;48.838;8.828;2023-01-13T06:05:51;8.00;99.90
67750;DHT22;54550;48.838;8.828;2023-01-13T06:08:22;8.30;99.90
67750;DHT22;54550;48.838;8.828;2023-01-13T06:10:48;8.00;99.90
67750;DHT22;54550;48.838;8.828;2023-01-13T06:13:14;8.10;99.90
67750;DHT22;54550;48.838;8.828;2023-01-13T06:15:40;8.10;99.90
67750;DHT22;54550;48.838;8.828;2023-01-13T06:18:05;8.00;99.90
67750;DHT22;54550;48.838;8.828;2023-01-13T06:20:31;8.00;99.90
67750;DHT22;54550;48.838;8.828;2023-01-13T06:22:57;8.20;99.90
67750;DHT22;54550;48.838;8.828;2023-01-13T06:27:58;8.20;99.90
67750;DHT22;54550;48.838;8.828;2023-01-13T06:30:28;8.50;99.90
67750;DHT22;54550;48.838;8.828;2023-01-13T06:32:57;8.20;99.90
67750;DHT22;54550;48.838;8.828;2023-01-13T06:35:28;8.20;99.90
67750;DHT22;54550;48.838;8.828;2023-01-13T06:37:56;8.20;99.90
67750;DHT22;54550;48.838;8.828;2023-01-13T06:40:22;8.40;99.90
67750;DHT22;54550;48.838;8.828;2023-01-13T06:42:48;8.30;99.90
67750;DHT22;54550;48.838;8.828;2023-01-13T06:45:34;8.40;99.90
67750;DHT22;54550;48.838;8.828;2023-01-13T06:47:59;8.70;99.90
67750;DHT22;54550;48.838;8.828;2023-01-13T06:50:26;8.40;99.90
67750;DHT22;54550;48.838;8.828;2023-01-13T06:52:52;8.50;99.90
67750;DHT22;54550;48.838;8.828;2023-01-13T06:55:18;8.40;99.90
67750;DHT22;54550;48.838;8.828;2023-01-13T06:57:54;8.40;99.90
67750;DHT22;54550;48.838;8.828;2023-01-13T07:00:21;8.50;99.90
67750;DHT22;54550;48.838;8.828;2023-01-13T07:02:47;8.30;99.90
67750;DHT22;54550;48.838;8.828;2023-01-13T07:05:14;8.10;99.90
67750;DHT22;54550;48.838;8.828;2023-01-13T07:07:40;8.20;99.90
67750;DHT22;54550;48.838;8.828;2023-01-13T07:10:07;8.10;99.90
67750;DHT22;54550;48.838;8.828;2023-01-13T07:12:36;8.10;99.90
67750;DHT22;54550;48.838;8.828;2023-01-13T07:15:22;7.90;99.90
67750;DHT22;54550;48.838;8.828;2023-01-13T07:17:48;8.10;99.90
67750;DHT22;54550;48.838;8.828;2023-01-13T07:20:14;8.10;99.90
67750;DHT22;54550;48.838;8.828;2023-01-13T07:22:40;8.20;99.90
67750;DHT22;54550;48.838;8.828;2023-01-13T07:25:06;8.20;99.90
67750;DHT22;54550;48.838;8.828;2023-01-13T07:27:32;8.30;99.90
67750;DHT22;54550;48.838;8.828;2023-01-13T07:29:58;8.20;99.90
67750;DHT22;54550;48.838;8.828;2023-01-13T07:32:23;8.30;99.90
67750;DHT22;54550;48.838;8.828;2023-01-13T07:34:49;8.20;99.90
67750;DHT22;54550;48.838;8.828;2023-01-13T07:37:14;8.10;99.90
67750;DHT22;54550;48.838;8.828;2023-01-13T07:39:40;8.20;99.90
67750;DHT22;54550;48.838;8.828;2023-01-13T07:42:05;8.50;99.90
67750;DHT22;54550;48.838;8.828;2023-01-13T07:44:49;8.40;99.90
67750;DHT22;54550;48.838;8.828;2023-01-13T07:47:15;8.70;99.90
67750;DHT22;54550;48.838;8.828;2023-01-13T07:49:40;8.50;99.90
67750;DHT22;54550;48.838;8.828;2023-01-13T07:52:06;8.40;99.90
67750;DHT22;54550;48.838;8.828;2023-01-13T07:54:31;8.30;99.90
67750;DHT22;54550;48.838;8.828;2023-01-13T07:56:57;8.30;99.90
67750;DHT22;54550;48.838;8.828;2023-01-13T07:59:22;8.30;99.90
67750;DHT22;54550;48.838;8.828;2023-01-13T08:01:50;8.30;99.90
67750;DHT22;54550;48.838;8.828;2023-01-13T08:04:16;8.20;99.90
67750;DHT22;54550;48.838;8.828;2023-01-13T08:06:41;8.10;99.90
67750;DHT22;54550;48.838;8.828;2023-01-13T08:09:07;8.10;99.90
67750;DHT22;54550;48.838;8.828;2023-01-13T08:11:33;8.10;99.90
67750;DHT22;54550;48.838;8.828;2023-01-13T08:13:58;8.10;99.90
67750;DHT22;54550;48.838;8.828;2023-01-13T08:16:24;8.10;99.90
67750;DHT22;54550;48.838;8.828;2023-01-13T08:18:50;8.00;99.90
67750;DHT22;54550;48.838;8.828;2023-01-13T08:21:15;8.00;99.90
67750;DHT22;54550;48.838;8.828;2023-01-13T08:23:43;7.80;99.90
67750;DHT22;54550;48.838;8.828;2023-01-13T08:26:10;7.70;99.90
67750;DHT22;54550;48.838;8.828;2023-01-13T08:28:37;7.60;99.90
67750;DHT22;54550;48.838;8.828;2023-01-13T08:31:06;7.60;99.90
67750;DHT22;54550;48.838;8.828;2023-01-13T08:33:32;7.80;99.90
67750;DHT22;54550;48.838;8.828;2023-01-13T08:36:02;7.40;99.90
67750;DHT22;54550;48.838;8.828;2023-01-13T08:38:28;7.50;99.90
67750;DHT22;54550;48.838;8.828;2023-01-13T08:40:53;7.40;99.90
67750;DHT22;54550;48.838;8.828;2023-01-13T08:43:19;7.20;99.90
67750;DHT22;54550;48.838;8.828;2023-01-13T08:45:53;6.80;99.90
67750;DHT22;54550;48.838;8.828;2023-01-13T08:48:19;6.80;99.90
67750;DHT22;54550;48.838;8.828;2023-01-13T08:50:46;6.50;99.90
67750;DHT22;54550;48.838;8.828;2023-01-13T08:53:11;6.40;99.90
67750;DHT22;54550;48.838;8.828;2023-01-13T08:55:39;6.20;99.90
67750;DHT22;54550;48.838;8.828;2023-01-13T08:58:05;6.20;99.90
67750;DHT22;54550;48.838;8.828;2023-01-13T09:00:31;6.10;99.90
67750;DHT22;54550;48.838;8.828;2023-01-13T09:02:58;6.00;99.90
67750;DHT22;54550;48.838;8.828;2023-01-13T09:05:24;6.00;99.90
67750;DHT22;54550;48.838;8.828;2023-01-13T09:07:49;6.00;99.90
67750;DHT22;54550;48.838;8.828;2023-01-13T09:10:15;6.00;99.90
67750;DHT22;54550;48.838;8.828;2023-01-13T09:12:41;6.10;99.90
67750;DHT22;54550;48.838;8.828;2023-01-13T09:15:25;5.90;99.90
67750;DHT22;54550;48.838;8.828;2023-01-13T09:17:50;6.10;99.90
67750;DHT22;54550;48.838;8.828;2023-01-13T09:20:16;6.30;99.90
67750;DHT22;54550;48.838;8.828;2023-01-13T09:22:42;6.40;99.90
67750;DHT22;54550;48.838;8.828;2023-01-13T09:25:08;6.60;99.90
67750;DHT22;54550;48.838;8.828;2023-01-13T09:27:33;6.80;99.90
67750;DHT22;54550;48.838;8.828;2023-01-13T09:29:59;7.00;99.90
67750;DHT22;54550;48.838;8.828;2023-01-13T09:32:25;7.00;99.90
67750;DHT22;54550;48.838;8.828;2023-01-13T09:34:50;7.10;99.90
67750;DHT22;54550;48.838;8.828;2023-01-13T09:37:33;7.20;99.90
67750;DHT22;54550;48.838;8.828;2023-01-13T09:40:00;7.80;99.90
67750;DHT22;54550;48.838;8.828;2023-01-13T09:42:42;8.00;99.90
67750;DHT22;54550;48.838;8.828;2023-01-13T09:45:36;7.90;99.90
67750;DHT22;54550;48.838;8.828;2023-01-13T09:48:21;7.60;99.90
67750;DHT22;54550;48.838;8.828;2023-01-13T09:51:11;7.60;99.90
67750;DHT22;54550;48.838;8.828;2023-01-13T09:53:48;7.30;99.90
67750;DHT22;54550;48.838;8.828;2023-01-13T09:56:15;7.10;99.90
67750;DHT22;54550;48.838;8.828;2023-01-13T09:58:43;7.10;99.90
67750;DHT22;54550;48.838;8.828;2023-01-13T10:03:47;7.20;99.90
67750;DHT22;54550;48.838;8.828;2023-01-13T10:06:32;7.40;99.90
67750;DHT22;54550;48.838;8.828;2023-01-13T10:08:59;7.20;99.90
67750;DHT22;54550;48.838;8.828;2023-01-13T10:11:29;7.20;99.90
67750;DHT22;54550;48.838;8.828;2023-01-13T10:14:27;7.10;99.90
67750;DHT22;54550;48.838;8.828;2023-01-13T10:22:58;7.20;99.90
67750;DHT22;54550;48.838;8.828;2023-01-13T10:25:42;7.10;99.90
67750;DHT22;54550;48.838;8.828;2023-01-13T10:28:12;7.00;99.90
67750;DHT22;54550;48.838;8.828;2023-01-13T10:30:44;6.90;99.90
67750;DHT22;54550;48.838;8.828;2023-01-13T10:33:17;6.80;99.90
67750;DHT22;54550;48.838;8.828;2023-01-13T10:35:59;6.60;99.90
67750;DHT22;54550;48.838;8.828;2023-01-13T10:38:36;6.50;99.90
67750;DHT22;54550;48.838;8.828;2023-01-13T10:43:41;6.10;99.90
67750;DHT22;54550;48.838;8.828;2023-01-13T10:46:14;6.00;99.90
67750;DHT22;54550;48.838;8.828;2023-01-13T10:48:57;6.00;99.90
67750;DHT22;54550;48.838;8.828;2023-01-13T10:51:27;6.20;99.90
67750;DHT22;54550;48.838;8.828;2023-01-13T10:53:56;6.50;99.90
67750;DHT22;54550;48.838;8.828;2023-01-13T10:56:25;6.50;99.90
67750;DHT22;54550;48.838;8.828;2023-01-13T10:58:51;6.50;99.90
67750;DHT22;54550;48.838;8.828;2023-01-13T11:01:25;6.50;99.90
67750;DHT22;54550;48.838;8.828;2023-01-13T11:03:52;6.40;99.90
67750;DHT22;54550;48.838;8.828;2023-01-13T11:06:24;6.20;99.90
67750;DHT22;54550;48.838;8.828;2023-01-13T11:08:53;6.10;99.90
67750;DHT22;54550;48.838;8.828;2023-01-13T11:11:39;6.10;99.90
67750;DHT22;54550;48.838;8.828;2023-01-13T11:14:17;6.00;99.90
67750;DHT22;54550;48.838;8.828;2023-01-13T11:17:34;6.00;99.90
67750;DHT22;54550;48.838;8.828;2023-01-13T11:20:22;6.30;99.90
67750;DHT22;54550;48.838;8.828;2023-01-13T11:22:58;6.20;99.90
67750;DHT22;54550;48.838;8.828;2023-01-13T11:25:33;6.20;99.90
67750;DHT22;54550;48.838;8.828;2023-01-13T11:28:37;6.30;99.90
67750;DHT22;54550;48.838;8.828;2023-01-13T11:31:15;6.50;99.90
67750;DHT22;54550;48.838;8.828;2023-01-13T11:33:51;6.70;99.90
67750;DHT22;54550;48.838;8.828;2023-01-13T11:36:42;7.00;99.90
67750;DHT22;54550;48.838;8.828;2023-01-13T11:39:47;7.30;99.90
67750;DHT22;54550;48.838;8.828;2023-01-13T11:42:19;7.70;99.90
67750;DHT22;54550;48.838;8.828;2023-01-13T11:47:36;8.50;99.90
67750;DHT22;54550;48.838;8.828;2023-01-13T11:50:05;8.60;99.90
67750;DHT22;54550;48.838;8.828;2023-01-13T12:01:53;8.60;99.90
67750;DHT22;54550;48.838;8.828;2023-01-13T12:10:12;9.00;99.90
67750;DHT22;54550;48.838;8.828;2023-01-13T12:12:54;8.90;99.90
67750;DHT22;54550;48.838;8.828;2023-01-13T12:21:20;8.80;99.90
67750;DHT22;54550;48.838;8.828;2023-01-13T12:24:15;8.20;99.90
67750;DHT22;54550;48.838;8.828;2023-01-13T12:26:49;7.60;99.90
67750;DHT22;54550;48.838;8.828;2023-01-13T12:29:19;7.50;99.90
67750;DHT22;54550;48.838;8.828;2023-01-13T12:31:48;7.90;99.90
67750;DHT22;54550;48.838;8.828;2023-01-13T12:37:33;8.60;99.90
67750;DHT22;54550;48.838;8.828;2023-01-13T12:40:21;8.60;99.90
67750;DHT22;54550;48.838;8.828;2023-01-13T12:45:45;8.00;99.90
67750;DHT22;54550;48.838;8.828;2023-01-13T12:48:44;7.80;99.90
67750;DHT22;54550;48.838;8.828;2023-01-13T12:53:46;8.20;99.90
67750;DHT22;54550;48.838;8.828;2023-01-13T12:56:33;8.60;99.90
67750;DHT22;54550;48.838;8.828;2023-01-13T13:01:47;8.60;99.90
67750;DHT22;54550;48.838;8.828;2023-01-13T13:04:20;8.60;99.90
67750;DHT22;54550;48.838;8.828;2023-01-13T13:06:51;8.60;99.90
67750;DHT22;54550;48.838;8.828;2023-01-13T13:09:26;8.90;99.90
67750;DHT22;54550;48.838;8.828;2023-01-13T13:11:53;9.10;99.90
67750;DHT22;54550;48.838;8.828;2023-01-13T13:19:53;8.70;99.90
67750;DHT22;54550;48.838;8.828;2023-01-13T13:27:27;8.20;99.90
67750;DHT22;54550;48.838;8.828;2023-01-13T13:29:57;8.00;99.90
67750;DHT22;54550;48.838;8.828;2023-01-13T13:38:11;8.00;99.90
67750;DHT22;54550;48.838;8.828;2023-01-13T13:41:09;7.70;99.90
67750;DHT22;54550;48.838;8.828;2023-01-13T13:43:59;7.20;99.90
67750;DHT22;54550;48.838;8.828;2023-01-13T13:46:46;7.00;99.90
67750;DHT22;54550;48.838;8.828;2023-01-13T13:49:20;6.80;99.90
67750;DHT22;54550;48.838;8.828;2023-01-13T13:54:36;6.50;99.90
67750;DHT22;54550;48.838;8.828;2023-01-13T13:57:18;6.30;99.90
67750;DHT22;54550;48.838;8.828;2023-01-13T13:59:47;6.00;99.90
67750;DHT22;54550;48.838;8.828;2023-01-13T14:02:29;5.70;99.90
67750;DHT22;54550;48.838;8.828;2023-01-13T14:05:23;5.90;99.90
67750;DHT22;54550;48.838;8.828;2023-01-13T14:08:01;5.80;99.90
67750;DHT22;54550;48.838;8.828;2023-01-13T14:10:38;6.30;99.90
67750;DHT22;54550;48.838;8.828;2023-01-13T14:15:44;6.80;99.90
67750;DHT22;54550;48.838;8.828;2023-01-13T14:18:13;6.70;99.90
67750;DHT22;54550;48.838;8.828;2023-01-13T14:20:40;6.50;99.90
67750;DHT22;54550;48.838;8.828;2023-01-13T14:23:06;6.00;99.90
67750;DHT22;54550;48.838;8.828;2023-01-13T14:25:52;5.90;99.90
67750;DHT22;54550;48.838;8.828;2023-01-13T14:28:27;5.80;99.90
67750;DHT22;54550;48.838;8.828;2023-01-13T14:30:54;6.00;99.90
67750;DHT22;54550;48.838;8.828;2023-01-13T14:33:29;5.80;99.90
67750;DHT22;54550;48.838;8.828;2023-01-13T14:36:14;5.60;99.90
67750;DHT22;54550;48.838;8.828;2023-01-13T14:38:41;5.30;99.90
67750;DHT22;54550;48.838;8.828;2023-01-13T14:41:23;5.10;99.90
67750;DHT22;54550;48.838;8.828;2023-01-13T14:43:50;5.00;99.90
67750;DHT22;54550;48.838;8.828;2023-01-13T14:46:18;4.90;99.90
67750;DHT22;54550;48.838;8.828;2023-01-13T14:48:47;4.90;99.90
67750;DHT22;54550;48.838;8.828;2023-01-13T14:51:24;4.80;99.90
67750;DHT22;54550;48.838;8.828;2023-01-13T14:53:50;4.90;99.90
67750;DHT22;54550;48.838;8.828;2023-01-13T14:56:35;4.90;99.90
67750;DHT22;54550;48.838;8.828;2023-01-13T15:04:49;5.00;99.90
67750;DHT22;54550;48.838;8.828;2023-01-13T15:07:24;5.00;99.90
67750;DHT22;54550;48.838;8.828;2023-01-13T15:10:24;5.00;99.90
67750;DHT22;54550;48.838;8.828;2023-01-13T15:12:51;5.00;99.90
67750;DHT22;54550;48.838;8.828;2023-01-13T15:15:28;5.20;99.90
67750;DHT22;54550;48.838;8.828;2023-01-13T15:17:54;5.50;99.90
67750;DHT22;54550;48.838;8.828;2023-01-13T15:20:23;5.40;99.90
67750;DHT22;54550;48.838;8.828;2023-01-13T15:22:49;5.40;99.90
67750;DHT22;54550;48.838;8.828;2023-01-13T15:25:16;5.10;99.90
67750;DHT22;54550;48.838;8.828;2023-01-13T15:27:45;5.00;99.90
67750;DHT22;54550;48.838;8.828;2023-01-13T15:32:43;4.90;99.90
67750;DHT22;54550;48.838;8.828;2023-01-13T15:35:12;4.80;99.90
67750;DHT22;54550;48.838;8.828;2023-01-13T15:37:38;4.80;99.90
67750;DHT22;54550;48.838;8.828;2023-01-13T15:40:04;4.80;99.90
67750;DHT22;54550;48.838;8.828;2023-01-13T15:42:31;4.70;99.90
67750;DHT22;54550;48.838;8.828;2023-01-13T15:45:15;4.70;99.90
67750;DHT22;54550;48.838;8.828;2023-01-13T15:47:59;4.80;99.90
67750;DHT22;54550;48.838;8.828;2023-01-13T15:50:25;4.90;99.90
67750;DHT22;54550;48.838;8.828;2023-01-13T15:52:50;5.00;99.90
67750;DHT22;54550;48.838;8.828;2023-01-13T15:55:16;5.10;99.90
67750;DHT22;54550;48.838;8.828;2023-01-13T15:57:47;5.20;99.90
67750;DHT22;54550;48.838;8.828;2023-01-13T16:00:16;5.00;99.90
67750;DHT22;54550;48.838;8.828;2023-01-13T16:02:42;5.10;99.90
67750;DHT22;54550;48.838;8.828;2023-01-13T16:05:08;5.00;99.90
67750;DHT22;54550;48.838;8.828;2023-01-13T16:07:34;5.00;99.90
67750;DHT22;54550;48.838;8.828;2023-01-13T16:10:00;5.00;99.90
67750;DHT22;54550;48.838;8.828;2023-01-13T16:12:27;4.60;99.90
67750;DHT22;54550;48.838;8.828;2023-01-13T16:14:53;4.50;99.90
67750;DHT22;54550;48.838;8.828;2023-01-13T16:17:21;4.40;99.90
67750;DHT22;54550;48.838;8.828;2023-01-13T16:19:47;4.30;99.90
67750;DHT22;54550;48.838;8.828;2023-01-13T16:22:14;4.20;99.90
67750;DHT22;54550;48.838;8.828;2023-01-13T16:24:40;4.30;99.90
67750;DHT22;54550;48.838;8.828;2023-01-13T16:27:18;4.10;99.90
67750;DHT22;54550;48.838;8.828;2023-01-13T16:29:44;4.10;99.90
67750;DHT22;54550;48.838;8.828;2023-01-13T16:32:10;4.10;99.90
67750;DHT22;54550;48.838;8.828;2023-01-13T16:34:35;4.10;99.90
67750;DHT22;54550;48.838;8.828;2023-01-13T16:37:01;4.10;99.90
67750;DHT22;54550;48.838;8.828;2023-01-13T16:39:26;4.10;99.90
67750;DHT22;54550;48.838;8.828;2023-01-13T16:41:52;4.10;99.90
67750;DHT22;54550;48.838;8.828;2023-01-13T16:44:18;4.00;99.90
67750;DHT22;54550;48.838;8.828;2023-01-13T16:46:44;4.00;99.90
67750;DHT22;54550;48.838;8.828;2023-01-13T16:49:12;4.00;99.90
67750;DHT22;54550;48.838;8.828;2023-01-13T16:51:38;4.10;99.90
67750;DHT22;54550;48.838;8.828;2023-01-13T16:54:04;4.10;99.90
67750;DHT22;54550;48.838;8.828;2023-01-13T16:56:31;4.40;99.90
67750;DHT22;54550;48.838;8.828;2023-01-13T16:59:00;4.30;99.90
67750;DHT22;54550;48.838;8.828;2023-01-13T17:01:30;4.40;99.90
67750;DHT22;54550;48.838;8.828;2023-01-13T17:03:57;4.50;99.90
67750;DHT22;54550;48.838;8.828;2023-01-13T17:09:17;4.80;99.90
67750;DHT22;54550;48.838;8.828;2023-01-13T17:11:43;5.10;99.90
67750;DHT22;54550;48.838;8.828;2023-01-13T17:14:09;5.10;99.90
67750;DHT22;54550;48.838;8.828;2023-01-13T17:16:34;5.10;99.90
67750;DHT22;54550;48.838;8.828;2023-01-13T17:19:00;5.20;99.90
67750;DHT22;54550;48.838;8.828;2023-01-13T17:21:25;5.20;99.90
67750;DHT22;54550;48.838;8.828;2023-01-13T17:23:52;5.30;99.90
67750;DHT22;54550;48.838;8.828;2023-01-13T17:28:49;5.30;99.90
67750;DHT22;54550;48.838;8.828;2023-01-13T17:31:15;5.40;99.90
67750;DHT22;54550;48.838;8.828;2023-01-13T17:33:40;5.30;99.90
67750;DHT22;54550;48.838;8.828;2023-01-13T17:36:06;5.30;99.90
67750;DHT22;54550;48.838;8.828;2023-01-13T17:38:32;5.30;99.90
67750;DHT22;54550;48.838;8.828;2023-01-13T17:41:03;5.20;99.90
67750;DHT22;54550;48.838;8.828;2023-01-13T17:43:30;5.20;99.90
67750;DHT22;54550;48.838;8.828;2023-01-13T17:45:56;5.30;99.90
67750;DHT22;54550;48.838;8.828;2023-01-13T17:48:22;5.20;99.90
67750;DHT22;54550;48.838;8.828;2023-01-13T17:50:48;5.20;99.90
67750;DHT22;54550;48.838;8.828;2023-01-13T17:53:16;5.20;99.90
67750;DHT22;54550;48.838;8.828;2023-01-13T17:55:51;5.10;99.90
67750;DHT22;54550;48.838;8.828;2023-01-13T17:58:21;5.00;99.90